createdAt,value
2022-08-10T00:00:31.577Z,98189.56
2022-08-10T00:03:01.177Z,98194.81
2022-08-10T00:05:28.517Z,98182.16
2022-08-10T00:08:10.492Z,98191.44
2022-08-10T00:10:37.335Z,98197.16
2022-08-10T00:13:03.897Z,98178.41
2022-08-10T00:15:52.335Z,98184.66
2022-08-10T00:18:34.282Z,98170.47
2022-08-10T00:21:02.355Z,98170.91
2022-08-10T00:23:29.045Z,98183.22
2022-08-10T00:25:55.894Z,98173.72
2022-08-10T00:28:22.458Z,98165.53
2022-08-10T00:30:49.038Z,98177.03
2022-08-10T00:33:15.685Z,98177.59
2022-08-10T00:35:42.510Z,98170.66
2022-08-10T00:38:09.095Z,98179.59
2022-08-10T00:40:37.996Z,98176.44
2022-08-10T00:43:06.008Z,98184.06
2022-08-10T00:45:32.868Z,98151.56
2022-08-10T00:47:59.446Z,98154.59
2022-08-10T00:50:26.174Z,98161.53
2022-08-10T00:52:53.225Z,98157.50
2022-08-10T00:55:20.889Z,98159.72
2022-08-10T00:57:54.832Z,98164.28
2022-08-10T01:00:23.005Z,98171.78
2022-08-10T01:02:49.869Z,98148.53
2022-08-10T01:05:16.679Z,98160.13
2022-08-10T01:08:15.305Z,98159.78
2022-08-10T01:12:38.621Z,98163.19
2022-08-10T01:14:09.560Z,98163.06
2022-08-10T01:16:51.136Z,98161.28
2022-08-10T01:19:35.118Z,98164.56
2022-08-10T01:22:20.757Z,98170.06
2022-08-10T01:25:31.352Z,98166.75
2022-08-10T01:28:24.285Z,98171.78
2022-08-10T01:30:54.632Z,98170.00
2022-08-10T01:33:57.896Z,98167.41
2022-08-10T01:36:31.946Z,98155.16
2022-08-10T01:39:03.500Z,98153.06
2022-08-10T01:41:46.149Z,98177.34
2022-08-10T01:44:27.512Z,98166.06
2022-08-10T01:47:23.573Z,98169.94
2022-08-10T01:49:56.086Z,98173.72
2022-08-10T01:52:26.555Z,98176.47
2022-08-10T01:54:56.597Z,98168.44
2022-08-10T01:57:25.716Z,98159.63
2022-08-10T01:59:58.635Z,98168.84
2022-08-10T02:02:33.877Z,98168.25
2022-08-10T02:05:03.469Z,98165.88
2022-08-10T02:07:34.530Z,98179.47
2022-08-10T02:10:09.681Z,98167.59
2022-08-10T02:12:38.590Z,98164.97
2022-08-10T02:15:10.685Z,98185.59
2022-08-10T02:18:00.500Z,98189.75
2022-08-10T02:20:39.990Z,98182.88
2022-08-10T02:23:11.656Z,98180.56
2022-08-10T02:25:43.390Z,98175.13
2022-08-10T02:28:27.302Z,98179.34
2022-08-10T02:31:23.012Z,98193.41
2022-08-10T02:33:57.546Z,98182.22
2022-08-10T02:36:29.539Z,98161.69
2022-08-10T02:39:01.068Z,98185.34
2022-08-10T02:42:18.259Z,98187.00
2022-08-10T02:45:29.345Z,98181.47
2022-08-10T02:47:52.589Z,98189.34
2022-08-10T02:50:25.161Z,98187.56
2022-08-10T02:53:00.141Z,98189.03
2022-08-10T02:55:32.367Z,98209.75
2022-08-10T02:58:13.292Z,98198.63
2022-08-10T03:00:50.226Z,98189.34
2022-08-10T03:03:23.778Z,98208.19
2022-08-10T03:05:55.532Z,98207.66
2022-08-10T03:08:25.901Z,98200.03
2022-08-10T03:10:54.730Z,98197.16
2022-08-10T03:13:23.076Z,98201.13
2022-08-10T03:15:51.562Z,98193.56
2022-08-10T03:18:19.995Z,98194.19
2022-08-10T03:20:47.659Z,98201.66
2022-08-10T03:23:17.453Z,98178.41
2022-08-10T03:25:53.692Z,98187.06
2022-08-10T03:28:30.184Z,98187.69
2022-08-10T03:30:59.527Z,98194.47
2022-08-10T03:33:28.746Z,98182.53
2022-08-10T03:36:43.262Z,98190.38
2022-08-10T03:38:43.659Z,98189.81
2022-08-10T03:41:16.043Z,98196.59
2022-08-10T03:43:47.758Z,98197.63
2022-08-10T03:46:17.177Z,98190.69
2022-08-10T03:48:48.645Z,98188.00
2022-08-10T03:51:17.487Z,98189.09
2022-08-10T03:54:03.634Z,98182.88
2022-08-10T03:56:32.791Z,98188.22
2022-08-10T03:59:00.535Z,98185.34
2022-08-10T04:02:46.141Z,98194.63
2022-08-10T04:04:19.224Z,98195.25
2022-08-10T04:06:51.397Z,98192.16
2022-08-10T04:09:21.154Z,98162.69
2022-08-10T04:11:47.990Z,98190.53
2022-08-10T04:14:37.881Z,98189.91
2022-08-10T04:17:01.180Z,98202.09
2022-08-10T04:19:29.930Z,98194.09
2022-08-10T04:22:13.715Z,98200.91
2022-08-10T04:24:42.092Z,98212.25
2022-08-10T04:27:09.350Z,98192.69
2022-08-10T04:29:37.179Z,98214.31
2022-08-10T04:32:05.119Z,98216.59
2022-08-10T04:34:33.496Z,98212.06
2022-08-10T04:37:08.647Z,98231.00
2022-08-10T04:39:36.018Z,98211.00
2022-08-10T04:42:03.729Z,98223.19
2022-08-10T04:44:30.997Z,98216.19
2022-08-10T04:46:59.540Z,98226.06
2022-08-10T04:49:55.373Z,98203.84
2022-08-10T04:52:13.566Z,98224.44
2022-08-10T04:54:43.149Z,98204.63
2022-08-10T04:57:12.742Z,98232.03
2022-08-10T04:59:41.094Z,98230.19
2022-08-10T05:02:22.003Z,98233.91
2022-08-10T05:04:54.125Z,98227.75
2022-08-10T05:07:20.836Z,98224.66
2022-08-10T05:10:04.179Z,98236.97
2022-08-10T05:12:38.497Z,98250.16
2022-08-10T05:15:11.057Z,98253.25
2022-08-10T05:17:38.815Z,98240.72
2022-08-10T05:20:08.505Z,98253.06
2022-08-10T05:22:45.971Z,98248.75
2022-08-10T05:25:15.407Z,98243.56
2022-08-10T05:27:44.879Z,98247.50
2022-08-10T05:30:15.203Z,98245.63
2022-08-10T05:32:58.284Z,98232.66
2022-08-10T05:35:28.149Z,98254.34
2022-08-10T05:38:09.461Z,98244.00
2022-08-10T05:40:46.488Z,98242.56
2022-08-10T05:43:19.874Z,98245.63
2022-08-10T05:46:18.084Z,98226.66
2022-08-10T05:48:58.222Z,98243.13
2022-08-10T05:51:23.767Z,98244.75
2022-08-10T05:54:03.362Z,98243.25
2022-08-10T05:56:53.311Z,98240.72
2022-08-10T06:00:29.333Z,98248.69
2022-08-10T06:02:30.807Z,98236.41
2022-08-10T06:05:09.633Z,98238.50
2022-08-10T06:07:59.701Z,98233.66
2022-08-10T06:10:32.725Z,98233.34
2022-08-10T06:13:30.238Z,98234.66
2022-08-10T06:16:10.407Z,98242.91
2022-08-10T06:18:38.151Z,98238.69
2022-08-10T06:21:06.765Z,98243.53
2022-08-10T06:23:34.818Z,98250.69
2022-08-10T06:26:09.552Z,98250.28
2022-08-10T06:28:44.050Z,98243.28
2022-08-10T06:31:46.549Z,98255.16
2022-08-10T06:34:19.672Z,98248.75
2022-08-10T06:36:48.230Z,98245.13
2022-08-10T06:39:32.897Z,98253.16
2022-08-10T06:42:33.622Z,98251.19
2022-08-10T06:45:13.547Z,98242.09
2022-08-10T06:48:02.865Z,98250.56
2022-08-10T06:50:55.975Z,98249.00
2022-08-10T06:53:53.727Z,98240.53
2022-08-10T06:56:35.821Z,98251.22
2022-08-10T06:59:21.997Z,98243.84
2022-08-10T07:02:03.577Z,98235.16
2022-08-10T07:04:34.870Z,98244.16
2022-08-10T07:07:04.532Z,98250.47
2022-08-10T07:09:35.677Z,98258.34
2022-08-10T07:12:07.602Z,98248.75
2022-08-10T07:14:42.536Z,98245.97
2022-08-10T07:17:24.375Z,98237.72
2022-08-10T07:20:01.801Z,98251.34
2022-08-10T07:23:51.749Z,98246.38
2022-08-10T07:25:25.208Z,98243.38
2022-08-10T07:28:00.151Z,98236.56
2022-08-10T07:30:35.859Z,98243.31
2022-08-10T07:33:04.711Z,98249.22
2022-08-10T07:35:41.725Z,98250.34
2022-08-10T07:38:16.035Z,98232.66
2022-08-10T07:40:44.023Z,98227.09
2022-08-10T07:43:12.614Z,98227.25
2022-08-10T07:45:42.582Z,98217.34
2022-08-10T07:48:14.739Z,98229.34
2022-08-10T07:50:42.765Z,98245.16
2022-08-10T07:53:13.655Z,98243.53
2022-08-10T07:56:04.373Z,98246.66
2022-08-10T07:58:31.870Z,98231.22
2022-08-10T08:01:00.214Z,98238.84
2022-08-10T08:03:29.424Z,98243.66
2022-08-10T08:06:02.962Z,98241.44
2022-08-10T08:08:33.750Z,98242.22
2022-08-10T08:11:01.601Z,98231.69
2022-08-10T08:13:29.565Z,98234.13
2022-08-10T08:16:17.797Z,98217.91
2022-08-10T08:18:58.426Z,98239.09
2022-08-10T08:24:04.979Z,98247.53
2022-08-10T08:24:32.489Z,98242.56
2022-08-10T08:27:03.137Z,98240.56
2022-08-10T08:29:33.853Z,98233.84
2022-08-10T08:32:03.475Z,98232.00
2022-08-10T08:34:36.458Z,98228.47
2022-08-10T08:37:04.453Z,98232.84
2022-08-10T08:39:33.215Z,98239.06
2022-08-10T08:42:41.653Z,98235.50
2022-08-10T08:45:29.662Z,98221.28
2022-08-10T08:48:11.543Z,98223.75
2022-08-10T08:50:57.842Z,98226.19
2022-08-10T08:54:01.648Z,98216.00
2022-08-10T08:57:07.550Z,98205.28
2022-08-10T09:00:05.957Z,98208.50
2022-08-10T09:02:54.878Z,98202.66
2022-08-10T09:06:00.149Z,98203.91
2022-08-10T09:08:32.510Z,98198.63
2022-08-10T09:11:04.410Z,98194.44
2022-08-10T09:13:48.923Z,98188.69
2022-08-10T09:16:24.268Z,98191.56
2022-08-10T09:19:05.724Z,98189.59
2022-08-10T09:21:59.122Z,98191.34
2022-08-10T09:24:52.120Z,98186.22
2022-08-10T09:27:29.481Z,98178.72
2022-08-10T09:30:08.486Z,98179.03
2022-08-10T09:36:13.493Z,98183.19
2022-08-10T09:36:22.447Z,98181.78
2022-08-10T09:40:56.169Z,98177.47
2022-08-10T09:42:23.938Z,98168.25
2022-08-10T09:45:06.826Z,98166.69
2022-08-10T09:48:01.003Z,98166.66
2022-08-10T09:54:07.708Z,98157.56
2022-08-10T09:57:44.422Z,98163.97
2022-08-10T10:00:12.506Z,98157.56
2022-08-10T10:03:01.987Z,98140.09
2022-08-10T10:05:36.746Z,98151.00
2022-08-10T10:08:14.998Z,98156.84
2022-08-10T10:11:11.276Z,98144.16
2022-08-10T10:14:02.475Z,98151.00
2022-08-10T10:16:52.312Z,98150.09
2022-08-10T10:19:55.522Z,98135.69
2022-08-10T10:22:58.931Z,98139.78
2022-08-10T10:26:18.743Z,98139.25
2022-08-10T10:29:44.930Z,98140.25
2022-08-10T10:32:43.459Z,98130.53
2022-08-10T10:35:24.045Z,98118.47
2022-08-10T10:38:01.861Z,98124.38
2022-08-10T10:40:37.664Z,98126.59
2022-08-10T10:43:26.061Z,98126.78
2022-08-10T10:46:04.921Z,98118.09
2022-08-10T10:48:46.887Z,98116.09
2022-08-10T10:51:28.629Z,98117.09
2022-08-10T10:54:21.085Z,98120.06
2022-08-10T10:56:56.337Z,98116.34
2022-08-10T10:59:55.481Z,98117.69
2022-08-10T11:02:41.675Z,98124.75
2022-08-10T11:05:31.470Z,98125.34
2022-08-10T11:08:01.457Z,98120.56
2022-08-10T11:10:35.823Z,98120.78
2022-08-10T11:14:26.972Z,98116.88
2022-08-10T11:16:28.694Z,98127.47
2022-08-10T11:18:57.838Z,98115.69
2022-08-10T11:21:24.504Z,98104.00
2022-08-10T11:24:49.018Z,98104.50
2022-08-10T11:27:02.523Z,98110.72
2022-08-10T11:29:49.501Z,98111.88
2022-08-10T11:32:44.107Z,98109.84
2022-08-10T11:35:30.463Z,98116.78
2022-08-10T11:38:31.162Z,98104.38
2022-08-10T11:42:10.367Z,98105.25
2022-08-10T11:44:13.391Z,98090.38
2022-08-10T11:46:53.514Z,98101.97
2022-08-10T11:49:34.006Z,98099.53
2022-08-10T11:52:44.196Z,98090.28
2022-08-10T11:55:19.351Z,98079.28
2022-08-10T11:57:54.197Z,98096.44
2022-08-10T12:00:24.080Z,98087.75
2022-08-10T12:02:55.680Z,98083.47
2022-08-10T12:05:46.451Z,98084.44
2022-08-10T12:10:05.208Z,98075.41
2022-08-10T12:11:18.118Z,98083.16
2022-08-10T12:14:19.811Z,98079.66
2022-08-10T12:16:48.868Z,98067.00
2022-08-10T12:19:29.452Z,98067.88
2022-08-10T12:22:31.011Z,98060.00
2022-08-10T12:25:07.185Z,98063.91
2022-08-10T12:27:53.298Z,98053.38
2022-08-10T12:30:29.442Z,98053.75
2022-08-10T12:33:09.270Z,98054.22
2022-08-10T12:36:17.431Z,98041.84
2022-08-10T12:38:47.604Z,98040.69
2022-08-10T12:41:43.464Z,98038.59
2022-08-10T12:44:22.377Z,98024.81
2022-08-10T12:46:48.864Z,98037.63
2022-08-10T12:49:28.559Z,98022.19
2022-08-10T12:52:09.071Z,98022.97
2022-08-10T12:54:37.377Z,98031.78
2022-08-10T12:57:10.172Z,98022.28
2022-08-10T12:59:43.311Z,98015.41
2022-08-10T13:02:14.826Z,98029.84
2022-08-10T13:04:44.044Z,98018.81
2022-08-10T13:08:24.958Z,98009.78
2022-08-10T13:10:04.104Z,98019.97
2022-08-10T13:12:44.678Z,98010.63
2022-08-10T13:15:45.744Z,98013.69
2022-08-10T13:18:18.589Z,98003.34
2022-08-10T13:20:53.545Z,98005.75
2022-08-10T13:23:31.571Z,97998.25
2022-08-10T13:26:01.047Z,97991.09
2022-08-10T13:28:45.391Z,97995.16
2022-08-10T13:31:18.298Z,97994.00
2022-08-10T13:34:38.785Z,97992.00
2022-08-10T13:36:42.117Z,97992.13
2022-08-10T13:39:10.477Z,97989.66
2022-08-10T13:41:45.684Z,97975.97
2022-08-10T13:44:17.778Z,97963.25
2022-08-10T13:46:53.689Z,97974.00
2022-08-10T13:49:25.517Z,97965.78
2022-08-10T13:51:57.899Z,97971.66
2022-08-10T13:54:29.626Z,97977.69
2022-08-10T13:56:57.851Z,97955.03
2022-08-10T14:00:34.472Z,97970.06
2022-08-10T14:02:21.854Z,97951.81
2022-08-10T14:04:48.914Z,97964.13
2022-08-10T14:07:17.853Z,97946.94
2022-08-10T14:09:47.572Z,97952.69
2022-08-10T14:12:17.653Z,97940.50
2022-08-10T14:14:52.695Z,97946.31
2022-08-10T14:17:22.189Z,97946.41
2022-08-10T14:19:51.576Z,97946.91
2022-08-10T14:22:34.323Z,97949.66
2022-08-10T14:25:12.866Z,97949.31
2022-08-10T14:28:03.134Z,97937.09
2022-08-10T14:30:32.126Z,97927.72
2022-08-10T14:33:04.187Z,97933.63
2022-08-10T14:36:21.326Z,97930.50
2022-08-10T14:38:26.751Z,97932.25
2022-08-10T14:40:56.916Z,97907.91
2022-08-10T14:43:40.276Z,97919.22
2022-08-10T14:46:11.103Z,97917.88
2022-08-10T14:48:48.158Z,97909.31
2022-08-10T14:51:17.946Z,97919.03
2022-08-10T14:53:52.370Z,97916.06
2022-08-10T14:56:29.802Z,97919.25
2022-08-10T14:59:06.819Z,97911.63
2022-08-10T15:02:01.173Z,97900.94
2022-08-10T15:04:26.694Z,97909.91
2022-08-10T15:07:03.800Z,97910.94
2022-08-10T15:09:59.914Z,97906.88
2022-08-10T15:12:48.470Z,97909.97
2022-08-10T15:15:27.990Z,97906.97
2022-08-10T15:17:57.875Z,97891.94
2022-08-10T15:20:27.445Z,97899.25
2022-08-10T15:23:00.902Z,97895.25
2022-08-10T15:25:29.092Z,97901.34
2022-08-10T15:28:11.235Z,97888.97
2022-08-10T15:30:42.852Z,97884.13
2022-08-10T15:33:59.310Z,97893.34
2022-08-10T15:36:41.731Z,97897.56
2022-08-10T15:40:20.614Z,97890.06
2022-08-10T15:42:20.944Z,97885.56
2022-08-10T15:44:54.036Z,97878.94
2022-08-10T15:47:45.182Z,97886.34
2022-08-10T15:50:27.986Z,97861.41
2022-08-10T15:53:01.915Z,97876.25
2022-08-10T15:55:51.592Z,97880.03
2022-08-10T15:58:23.790Z,97871.88
2022-08-10T16:02:12.488Z,97871.44
2022-08-10T16:04:43.617Z,97877.28
2022-08-10T16:07:48.939Z,97858.13
2022-08-10T16:10:26.097Z,97864.78
2022-08-10T16:13:01.318Z,97870.09
2022-08-10T16:15:30.270Z,97857.81
2022-08-10T16:18:09.006Z,97864.50
2022-08-10T16:20:55.531Z,97870.72
2022-08-10T16:23:31.722Z,97861.13
2022-08-10T16:26:13.604Z,97855.31
2022-08-10T16:28:49.947Z,97847.75
2022-08-10T16:31:22.550Z,97855.47
2022-08-10T16:33:55.377Z,97840.31
2022-08-10T16:36:28.939Z,97843.75
2022-08-10T16:38:57.569Z,97837.94
2022-08-10T16:42:03.869Z,97849.25
2022-08-10T16:44:15.893Z,97835.66
2022-08-10T16:46:45.201Z,97851.34
2022-08-10T16:49:15.095Z,97847.78
2022-08-10T16:51:47.124Z,97842.84
2022-08-10T16:54:22.347Z,97839.75
2022-08-10T16:56:52.850Z,97822.91
2022-08-10T16:59:24.779Z,97843.63
2022-08-10T17:01:54.150Z,97842.13
2022-08-10T17:04:23.625Z,97849.16
2022-08-10T17:06:59.733Z,97849.81
2022-08-10T17:09:33.150Z,97839.06
2022-08-10T17:12:05.487Z,97835.84
2022-08-10T17:14:32.190Z,97831.00
2022-08-10T17:17:05.779Z,97843.72
2022-08-10T17:19:37.782Z,97839.94
2022-08-10T17:22:11.753Z,97838.09
2022-08-10T17:24:45.833Z,97842.78
2022-08-10T17:28:03.000Z,97830.47
2022-08-10T17:30:07.029Z,97837.56
2022-08-10T17:32:45.653Z,97831.47
2022-08-10T17:35:23.331Z,97835.41
2022-08-10T17:38:10.015Z,97833.81
2022-08-10T17:40:57.817Z,97834.69
2022-08-10T17:44:01.107Z,97831.66
2022-08-10T17:46:14.325Z,97831.19
2022-08-10T17:48:42.864Z,97825.88
2022-08-10T17:51:15.450Z,97837.56
2022-08-10T17:53:52.001Z,97830.81
2022-08-10T17:56:22.621Z,97844.25
2022-08-10T17:58:53.720Z,97840.88
2022-08-10T18:01:38.910Z,97821.47
2022-08-10T18:04:17.213Z,97830.97
2022-08-10T18:06:44.415Z,97829.13
2022-08-10T18:09:24.115Z,97826.13
2022-08-10T18:11:57.834Z,97842.09
2022-08-10T18:14:29.935Z,97836.66
2022-08-10T18:16:58.913Z,97829.91
2022-08-10T18:19:29.888Z,97830.78
2022-08-10T18:21:58.179Z,97827.53
2022-08-10T18:24:27.143Z,97840.66
2022-08-10T18:26:56.314Z,97851.06
2022-08-10T18:29:27.534Z,97848.50
2022-08-10T18:32:02.616Z,97851.84
2022-08-10T18:34:31.648Z,97869.31
2022-08-10T18:37:00.183Z,97866.31
2022-08-10T18:39:36.315Z,97866.00
2022-08-10T18:43:01.282Z,97855.72
2022-08-10T18:45:32.307Z,97862.72
2022-08-10T18:48:05.032Z,97858.38
2022-08-10T18:50:37.653Z,97867.16
2022-08-10T18:53:18.459Z,97853.31
2022-08-10T18:56:09.315Z,97874.66
2022-08-10T18:59:04.949Z,97875.72
2022-08-10T19:02:01.565Z,97875.03
2022-08-10T19:04:36.050Z,97881.22
2022-08-10T19:07:02.523Z,97883.09
2022-08-10T19:09:48.467Z,97882.56
2022-08-10T19:12:33.775Z,97889.91
2022-08-10T19:15:25.195Z,97890.38
2022-08-10T19:18:20.009Z,97902.03
2022-08-10T19:20:49.928Z,97901.63
2022-08-10T19:23:22.274Z,97900.38
2022-08-10T19:26:42.501Z,97899.13
2022-08-10T19:29:05.081Z,97906.34
2022-08-10T19:31:44.258Z,97907.53
2022-08-10T19:34:21.771Z,97912.56
2022-08-10T19:37:32.527Z,97918.06
2022-08-10T19:40:44.196Z,97926.59
2022-08-10T19:43:59.110Z,97911.72
2022-08-10T19:46:35.664Z,97921.03
2022-08-10T19:49:24.197Z,97917.84
2022-08-10T19:52:11.534Z,97907.28
2022-08-10T19:55:03.849Z,97921.97
2022-08-10T19:57:38.407Z,97917.66
2022-08-10T20:00:19.593Z,97915.75
2022-08-10T20:02:59.683Z,97907.41
2022-08-10T20:05:32.681Z,97916.66
2022-08-10T20:08:17.823Z,97920.22
2022-08-10T20:11:10.309Z,97919.44
2022-08-10T20:14:09.334Z,97927.03
2022-08-10T20:16:48.446Z,97929.25
2022-08-10T20:19:53.229Z,97927.31
2022-08-10T20:22:29.773Z,97930.88
2022-08-10T20:25:22.788Z,97925.19
2022-08-10T20:28:09.144Z,97930.91
2022-08-10T20:30:39.782Z,97923.00
2022-08-10T20:33:12.367Z,97929.81
2022-08-10T20:36:07.855Z,97920.31
2022-08-10T20:38:48.246Z,97930.91
2022-08-10T20:41:31.678Z,97918.13
2022-08-10T20:44:22.415Z,97929.25
2022-08-10T20:47:00.343Z,97931.13
2022-08-10T20:49:31.137Z,97927.84
2022-08-10T20:52:02.161Z,97909.28
2022-08-10T20:54:35.334Z,97928.03
2022-08-10T20:57:56.206Z,97926.88
2022-08-10T21:00:30.013Z,97932.03
2022-08-10T21:03:27.296Z,97936.88
2022-08-10T21:06:13.672Z,97927.91
2022-08-10T21:09:02.150Z,97929.78
2022-08-10T21:11:49.505Z,97928.09
2022-08-10T21:14:32.439Z,97920.66
2022-08-10T21:17:03.121Z,97928.00
2022-08-10T21:22:44.972Z,97912.81
2022-08-10T21:25:15.457Z,97929.91
2022-08-10T21:25:41.910Z,97927.34
2022-08-10T21:28:03.492Z,97932.81
2022-08-10T21:30:55.245Z,97936.06
2022-08-10T21:33:45.283Z,97930.28
2022-08-10T21:36:27.270Z,97935.94
2022-08-10T21:39:19.927Z,97937.00
2022-08-10T21:42:16.957Z,97936.94
2022-08-10T21:45:24.686Z,97925.44
2022-08-10T21:48:57.622Z,97938.94
2022-08-10T21:52:04.159Z,97938.34
2022-08-10T21:55:09.977Z,97933.47
2022-08-10T21:58:28.461Z,97927.97
2022-08-10T22:01:39.167Z,97927.00
2022-08-10T22:04:25.418Z,97928.91
2022-08-10T22:07:11.165Z,97919.34
2022-08-10T22:13:11.370Z,97922.81
2022-08-10T22:16:10.470Z,97921.69
2022-08-10T22:19:02.634Z,97920.09
2022-08-10T22:22:27.815Z,97930.56
2022-08-10T22:26:02.149Z,97936.38
2022-08-10T22:28:48.565Z,97935.44
2022-08-10T22:31:25.830Z,97911.44
2022-08-10T22:32:15.412Z,97942.16
2022-08-10T22:35:23.127Z,97927.38
2022-08-10T22:38:34.184Z,97931.19
2022-08-10T22:41:32.069Z,97931.44
2022-08-10T22:44:19.477Z,97934.13
2022-08-10T22:47:06.959Z,97930.69
2022-08-10T22:49:34.440Z,97935.00
2022-08-10T22:52:09.762Z,97942.06
2022-08-10T22:55:06.904Z,97945.03
2022-08-10T22:57:52.334Z,97932.47
2022-08-10T23:00:31.395Z,97923.00
2022-08-10T23:03:21.585Z,97931.97
2022-08-10T23:05:57.677Z,97923.88
2022-08-10T23:08:31.195Z,97929.56
2022-08-10T23:11:04.561Z,97924.38
2022-08-10T23:13:36.467Z,97928.97
2022-08-10T23:16:33.375Z,97932.97
2022-08-10T23:19:09.904Z,97926.38
2022-08-10T23:22:03.876Z,97902.22
2022-08-10T23:24:41.713Z,97926.44
2022-08-10T23:27:37.373Z,97921.13
2022-08-10T23:30:09.497Z,97929.38
2022-08-10T23:32:42.352Z,97922.94
2022-08-10T23:36:08.872Z,97926.19
2022-08-10T23:38:04.826Z,97917.31
2022-08-10T23:40:33.392Z,97920.81
2022-08-10T23:43:02.184Z,97912.81
2022-08-10T23:45:52.483Z,97906.50
2022-08-10T23:48:23.400Z,97924.81
2022-08-10T23:50:59.669Z,97907.44
2022-08-10T23:53:30.230Z,97930.97
2022-08-10T23:56:20.831Z,97921.16
2022-08-10T23:58:50.249Z,97904.28
